Terminal Aerodrome Forecast
Issued by NWS Cleveland, OH

Home | Current Version | Previous Version | Text Only | Print | Product List | Glossary Off
Versions: 1 2 3 4 5 6 7 8 9 10 11 12 13 14 15 16 17 18

000
FTUS41 KCLE 151100
TAFCAK
TAF
KCAK 151120Z 1512/1612 VRB03KT P6SM SKC
     FM151400 20008KT P6SM SCT100 BKN250
     FM152000 22008KT P6SM BKN060 OVC100
     FM152330 24008KT P6SM -RA OVC045
     FM160500 28003KT P6SM -RA OVC025
     FM160900 30005KT 5SM BR OVC004=

USA.gov is the U.S. government's official web portal to all federal, state and local government web resources and services.